»·PEaware :: SKW7022 KSLC-KGJT

SKW7022 :: KSLC-KGJT

FLIGHT INFORMATION

Flight Status: Arrived
Operator:
SkyWest Airlines
More flights by this operator :: More flights under this callsign
Pilot: Jack B. (5846)
Aircraft: CANADAIR CL-600 CRJ-200
(CRJ2)
More flights by this aircraft type
Origin: KSLC Salt Lake City Intl
United States
Destination: KGJT Walker
United States
More flights between these airports :: More routes between these airports
Route: +RUGGD1 MTU WINDO MACKS
File this flight plan on PilotEdge
Remarks:
Altitude:
(Current/Filed)
270ft
Speed:
(Current/Filed)
320kts
Departed: 09-Aug-19 09:57 AM
Arrived: 09-Aug-19 10:36 AM
Distance/Time
Traveled:
187nm/0:39
Distance/Time
To Go:
Arrived

Flight Plot

Page will automatically refresh every two minutes.

Flight plan parsing failed; only flown route is shown


Map Options




Map Legend


Flown Route
Filed Route
Departure Airport
Arrival Airport
Navaid (VOR, NDB)
Fix

Horizontal Profiles

Position Reports

Time Latitude Longitude Heading Altitude Ground
Speed
09-Aug-19 09:40 40.786569 -111.986839 56 4225ft 0kts
09-Aug-19 09:41 40.786569 -111.986839 56 4225ft 0kts
09-Aug-19 09:42 40.786569 -111.986839 56 4225ft 0kts
09-Aug-19 09:43 40.786569 -111.986839 56 4225ft 0kts
09-Aug-19 09:44 40.786569 -111.986839 56 4225ft 0kts
09-Aug-19 09:45 40.786569 -111.986839 56 4225ft 0kts
09-Aug-19 09:46 40.786569 -111.986839 56 4225ft 0kts
09-Aug-19 09:47 40.786569 -111.986839 56 4225ft 0kts
09-Aug-19 09:48 40.786562 -111.987010 175 4225ft 0kts
09-Aug-19 09:49 40.786357 -111.987208 241 4226ft 4kts
09-Aug-19 09:50 40.784341 -111.988845 265 4228ft 16kts
09-Aug-19 09:51 40.784461 -111.993491 359 4228ft 8kts
09-Aug-19 09:52 40.788948 -111.993936 355 4228ft 20kts
09-Aug-19 09:53 40.795901 -111.994745 355 4228ft 18kts
09-Aug-19 09:54 40.801360 -111.995368 355 4224ft 32kts
09-Aug-19 09:55 40.808259 -111.996778 293 4221ft 21kts
09-Aug-19 09:56 40.796557 -111.997955 175 4225ft 129kts
09-Aug-19 09:57 40.756252 -112.010284 251 5720ft 177kts
09-Aug-19 09:58 40.783541 -112.062065 350 7444ft 200kts
09-Aug-19 09:59 40.840530 -112.042363 10 9090ft 234kts
09-Aug-19 10:00 40.909780 -112.031571 5 10747ft 273kts
09-Aug-19 10:01 40.976182 -111.987664 73 12419ft 299kts
09-Aug-19 10:02 40.948000 -111.887239 129 13937ft 315kts
09-Aug-19 10:03 40.894098 -111.790518 129 15360ft 339kts
09-Aug-19 10:04 40.837507 -111.687247 129 16767ft 356kts
09-Aug-19 10:05 40.779493 -111.579382 129 18233ft 365kts
09-Aug-19 10:06 40.721184 -111.468809 129 19550ft 372kts
09-Aug-19 10:07 40.675332 -111.344096 115 20704ft 387kts
09-Aug-19 10:08 40.636842 -111.211148 115 21772ft 393kts
09-Aug-19 10:09 40.597438 -111.075637 115 22684ft 401kts
09-Aug-19 10:10 40.556839 -110.936747 115 23450ft 414kts
09-Aug-19 10:11 40.515687 -110.795287 115 24268ft 421kts
09-Aug-19 10:12 40.473080 -110.650874 116 25069ft 426kts
09-Aug-19 10:13 40.430302 -110.506750 115 25807ft 432kts
09-Aug-19 10:14 40.356888 -110.390765 141 26533ft 416kts
09-Aug-19 10:15 40.273537 -110.284981 141 27190ft 421kts
09-Aug-19 10:16 40.187661 -110.176074 141 27216ft 440kts
09-Aug-19 10:17 40.098112 -110.063535 141 27215ft 455kts
09-Aug-19 10:18 40.005197 -109.947699 141 27214ft 467kts
09-Aug-19 10:19 39.912252 -109.831718 141 27205ft 475kts
09-Aug-19 10:20 39.819094 -109.716458 141 25122ft 457kts
09-Aug-19 10:21 39.726170 -109.602003 140 23021ft 464kts
09-Aug-19 10:22 39.640246 -109.478720 127 20912ft 463kts
09-Aug-19 10:23 39.569246 -109.345821 127 18787ft 439kts
09-Aug-19 10:24 39.482558 -109.247426 159 16685ft 415kts
09-Aug-19 10:25 39.378093 -109.192469 159 14572ft 409kts
09-Aug-19 10:26 39.273065 -109.138954 157 12382ft 406kts
09-Aug-19 10:27 39.224084 -109.029036 78 10158ft 356kts
09-Aug-19 10:28 39.287711 -108.954553 44 9896ft 305kts
09-Aug-19 10:29 39.295465 -108.860056 114 8764ft 275kts
09-Aug-19 10:30 39.261919 -108.776901 125 7992ft 276kts
09-Aug-19 10:31 39.218453 -108.696995 127 7636ft 266kts
09-Aug-19 10:32 39.179307 -108.625308 127 6346ft 220kts
09-Aug-19 10:33 39.151145 -108.573877 127 5386ft 154kts
09-Aug-19 10:34 39.128001 -108.531655 125 4840ft 96kts
09-Aug-19 10:35 39.122507 -108.523456 215 4847ft 0kts
09-Aug-19 10:36 39.123153 -108.525397 277 4845ft 16kts
09-Aug-19 10:37 39.122967 -108.528308 261 4833ft 0kts
09-Aug-19 10:38 39.122967 -108.528308 261 4833ft 0kts
09-Aug-19 10:39 39.122967 -108.528308 261 4833ft 0kts

Navigation Log

Ident Type
Flight plan parsing failed, navigation log unavailable